createdAt,value
2022-12-31T00:01:30.288Z,93.47
2022-12-31T00:03:59.580Z,93.08
2022-12-31T00:06:33.318Z,92.83
2022-12-31T00:09:06.822Z,92.92
2022-12-31T00:11:36.951Z,93.02
2022-12-31T00:14:06.717Z,93.49
2022-12-31T00:16:38.434Z,93.37
2022-12-31T00:19:11.464Z,93.33
2022-12-31T00:21:41.793Z,93.38
2022-12-31T00:24:13.131Z,93.57
2022-12-31T00:26:41.778Z,94.13
2022-12-31T00:29:11.644Z,93.91
2022-12-31T00:31:40.745Z,93.79
2022-12-31T00:34:09.399Z,93.47
2022-12-31T00:36:42.597Z,93.27
2022-12-31T00:39:12.265Z,93.29
2022-12-31T00:41:43.322Z,93.58
2022-12-31T00:44:13.379Z,93.29
2022-12-31T00:49:10.430Z,93.12
2022-12-31T00:51:40.397Z,93.51
2022-12-31T00:54:10.231Z,93.50
2022-12-31T00:56:38.924Z,93.34
2022-12-31T00:59:07.710Z,93.20
2022-12-31T01:01:39.436Z,93.96
2022-12-31T01:04:12.558Z,93.91
2022-12-31T01:06:43.782Z,93.94
2022-12-31T01:09:14.432Z,93.86
2022-12-31T01:11:43.158Z,93.66
2022-12-31T01:14:14.436Z,93.65
2022-12-31T01:16:46.987Z,93.49
2022-12-31T01:19:23.205Z,93.15
2022-12-31T01:21:54.600Z,93.38
2022-12-31T01:24:23.507Z,92.96
2022-12-31T01:26:52.462Z,92.55
2022-12-31T01:29:21.379Z,93.15
2022-12-31T01:31:50.107Z,93.15
2022-12-31T01:34:18.819Z,93.15
2022-12-31T01:36:47.575Z,92.82
2022-12-31T01:39:17.601Z,92.61
2022-12-31T01:41:48.832Z,92.64
2022-12-31T01:44:53.840Z,92.45
2022-12-31T01:47:36.342Z,92.29
2022-12-31T01:50:13.865Z,91.90
2022-12-31T01:52:48.371Z,91.93
2022-12-31T01:55:22.687Z,91.95
2022-12-31T01:57:55.935Z,91.78
2022-12-31T02:00:24.830Z,91.55
2022-12-31T02:02:54.182Z,92.12
2022-12-31T02:05:30.599Z,91.78
2022-12-31T02:08:00.118Z,92.06
2022-12-31T02:10:30.134Z,92.01
2022-12-31T02:12:59.553Z,91.77
2022-12-31T02:15:48.387Z,92.12
2022-12-31T02:18:32.087Z,92.06
2022-12-31T02:21:35.015Z,91.87
2022-12-31T02:24:47.375Z,91.04
2022-12-31T02:27:35.289Z,91.40
2022-12-31T02:30:16.312Z,91.51
2022-12-31T02:33:12.496Z,91.36
2022-12-31T02:35:50.088Z,91.16
2022-12-31T02:38:24.720Z,91.32
2022-12-31T02:40:55.330Z,91.29
2022-12-31T02:43:24.049Z,91.54
2022-12-31T02:46:13.329Z,91.29
2022-12-31T02:48:50.298Z,91.49
2022-12-31T02:51:37.025Z,91.58
2022-12-31T02:54:34.353Z,91.67
2022-12-31T02:57:12.767Z,91.78
2022-12-31T03:00:10.748Z,91.84
2022-12-31T03:02:44.802Z,91.76
2022-12-31T03:05:16.443Z,92.35
2022-12-31T03:07:47.371Z,92.00
2022-12-31T03:10:16.095Z,92.18
2022-12-31T03:12:48.565Z,92.07
2022-12-31T03:15:21.522Z,92.25
2022-12-31T03:17:56.552Z,92.32
2022-12-31T03:20:48.152Z,92.01
2022-12-31T03:23:21.655Z,92.09
2022-12-31T03:25:49.732Z,92.01
2022-12-31T03:28:20.988Z,92.29
2022-12-31T03:30:55.796Z,92.22
2022-12-31T03:33:27.513Z,92.31
2022-12-31T03:35:56.702Z,92.38
2022-12-31T03:38:25.652Z,92.07
2022-12-31T03:40:54.955Z,92.26
2022-12-31T03:43:24.110Z,91.98
2022-12-31T03:45:54.314Z,92.20
2022-12-31T03:48:25.485Z,92.37
2022-12-31T03:50:54.144Z,92.39
2022-12-31T03:53:22.743Z,92.18
2022-12-31T03:55:53.400Z,92.14
2022-12-31T03:58:23.297Z,92.09
2022-12-31T04:00:52.656Z,91.79
2022-12-31T04:03:21.386Z,91.80
2022-12-31T04:05:56.185Z,91.38
2022-12-31T04:08:25.173Z,91.06
2022-12-31T04:10:53.838Z,91.00
2022-12-31T04:13:22.446Z,91.15
2022-12-31T04:15:52.497Z,91.41
2022-12-31T04:18:21.121Z,91.71
2022-12-31T04:20:49.785Z,91.63
2022-12-31T04:23:19.979Z,91.65
2022-12-31T04:25:48.650Z,91.42
2022-12-31T04:28:17.427Z,91.45
2022-12-31T04:30:46.054Z,91.41
2022-12-31T04:33:14.667Z,91.32
2022-12-31T04:35:43.270Z,91.23
2022-12-31T04:38:11.944Z,91.13
2022-12-31T04:41:02.061Z,91.47
2022-12-31T04:43:30.723Z,91.39
2022-12-31T04:45:59.321Z,91.65
2022-12-31T04:48:27.923Z,91.84
2022-12-31T04:50:58.235Z,92.07
2022-12-31T04:53:29.109Z,91.93
2022-12-31T04:56:05.976Z,92.42
2022-12-31T04:58:34.856Z,92.24
2022-12-31T05:01:03.887Z,92.66
2022-12-31T05:03:32.972Z,92.78
2022-12-31T05:06:03.319Z,92.61
2022-12-31T05:08:32.972Z,92.58
2022-12-31T05:11:03.012Z,92.95
2022-12-31T05:13:33.756Z,92.87
2022-12-31T05:16:02.905Z,92.81
2022-12-31T05:18:32.516Z,93.24
2022-12-31T05:21:01.483Z,93.26
2022-12-31T05:23:30.365Z,93.46
2022-12-31T05:26:04.323Z,93.62
2022-12-31T05:28:37.932Z,93.63
2022-12-31T05:31:06.913Z,93.69
2022-12-31T05:33:35.580Z,93.80
2022-12-31T05:36:04.332Z,93.51
2022-12-31T05:38:32.945Z,93.90
2022-12-31T05:41:06.431Z,94.22
2022-12-31T05:43:37.018Z,94.10
2022-12-31T05:46:07.042Z,94.13
2022-12-31T05:48:35.761Z,93.78
2022-12-31T05:51:04.393Z,93.77
2022-12-31T05:53:34.549Z,93.98
2022-12-31T05:56:03.203Z,93.84
2022-12-31T05:58:31.810Z,93.63
2022-12-31T06:01:02.146Z,93.42
2022-12-31T06:03:30.910Z,93.68
2022-12-31T06:06:02.417Z,93.41
2022-12-31T06:08:31.040Z,93.46
2022-12-31T06:10:59.675Z,93.46
2022-12-31T06:13:28.308Z,93.46
2022-12-31T06:15:56.989Z,92.96
2022-12-31T06:18:27.004Z,93.02
2022-12-31T06:20:55.573Z,93.14
2022-12-31T06:23:24.160Z,93.04
2022-12-31T06:25:52.752Z,92.90
2022-12-31T06:28:21.454Z,93.33
2022-12-31T06:30:50.546Z,93.41
2022-12-31T06:33:20.000Z,93.23
2022-12-31T06:35:50.062Z,92.94
2022-12-31T06:38:18.703Z,93.07
2022-12-31T06:40:47.325Z,93.07
2022-12-31T06:43:16.137Z,93.15
2022-12-31T06:45:44.856Z,93.17
2022-12-31T06:48:13.473Z,93.31
2022-12-31T06:50:42.190Z,93.23
2022-12-31T06:53:12.178Z,93.26
2022-12-31T06:55:42.294Z,93.43
2022-12-31T06:58:15.337Z,93.39
2022-12-31T07:00:56.615Z,93.39
2022-12-31T07:03:39.654Z,93.35
2022-12-31T07:06:16.300Z,93.41
2022-12-31T07:08:57.846Z,93.28
2022-12-31T07:11:33.609Z,93.43
2022-12-31T07:14:16.371Z,93.30
2022-12-31T07:17:00.104Z,93.11
2022-12-31T07:19:45.716Z,93.40
2022-12-31T07:22:18.004Z,93.18
2022-12-31T07:24:48.998Z,92.89
2022-12-31T07:27:35.441Z,93.03
2022-12-31T07:30:10.792Z,93.17
2022-12-31T07:33:04.226Z,93.21
2022-12-31T07:35:46.281Z,92.82
2022-12-31T07:38:27.807Z,93.04
2022-12-31T07:41:11.100Z,92.84
2022-12-31T07:43:58.172Z,92.97
2022-12-31T07:46:37.116Z,92.77
2022-12-31T07:49:11.182Z,92.89
2022-12-31T07:51:41.209Z,92.84
2022-12-31T07:54:13.846Z,92.77
2022-12-31T07:56:45.671Z,93.73
2022-12-31T07:59:30.408Z,92.93
2022-12-31T08:02:12.087Z,92.55
2022-12-31T08:04:53.767Z,92.07
2022-12-31T08:07:37.266Z,92.83
2022-12-31T08:10:18.192Z,92.39
2022-12-31T08:12:51.407Z,92.45
2022-12-31T08:15:26.871Z,92.40
2022-12-31T08:17:59.425Z,92.40
2022-12-31T08:20:30.950Z,92.01
2022-12-31T08:23:22.951Z,92.18
2022-12-31T08:26:29.007Z,92.04
2022-12-31T08:29:18.201Z,92.24
2022-12-31T08:31:59.568Z,92.49
2022-12-31T08:34:36.605Z,92.51
2022-12-31T08:37:14.483Z,92.21
2022-12-31T08:40:02.207Z,91.88
2022-12-31T08:42:40.896Z,92.25
2022-12-31T08:45:21.501Z,91.82
2022-12-31T08:48:04.450Z,91.70
2022-12-31T08:50:33.974Z,92.09
2022-12-31T08:53:03.559Z,92.08
2022-12-31T08:55:33.155Z,92.06
2022-12-31T08:58:23.844Z,91.84
2022-12-31T09:00:59.737Z,91.86
2022-12-31T09:03:46.121Z,91.92
2022-12-31T09:06:28.355Z,91.09
2022-12-31T09:09:07.482Z,91.51
2022-12-31T09:11:54.631Z,91.17
2022-12-31T09:14:50.946Z,91.13
2022-12-31T09:17:47.521Z,90.75
2022-12-31T09:20:36.367Z,91.33
2022-12-31T09:23:12.490Z,91.31
2022-12-31T09:25:52.939Z,91.08
2022-12-31T09:28:40.545Z,91.13
2022-12-31T09:31:17.675Z,90.93
2022-12-31T09:33:55.901Z,90.62
2022-12-31T09:36:33.219Z,90.92
2022-12-31T09:39:13.218Z,90.53
2022-12-31T09:42:28.619Z,90.17
2022-12-31T09:45:56.578Z,90.69
2022-12-31T09:49:10.655Z,90.13
2022-12-31T09:51:57.051Z,89.97
2022-12-31T09:54:52.437Z,90.87
2022-12-31T09:57:42.013Z,90.66
2022-12-31T10:00:18.585Z,90.57
2022-12-31T10:03:09.119Z,90.27
2022-12-31T10:06:00.676Z,89.72
2022-12-31T10:09:03.744Z,90.26
2022-12-31T10:11:58.285Z,89.97
2022-12-31T10:14:48.797Z,89.97
2022-12-31T10:17:37.056Z,90.03
2022-12-31T10:20:31.906Z,90.43
2022-12-31T10:23:33.986Z,90.18
2022-12-31T10:26:38.899Z,90.34
2022-12-31T10:29:25.511Z,89.97
2022-12-31T10:32:16.400Z,89.85
2022-12-31T10:34:57.150Z,89.93
2022-12-31T10:37:36.882Z,90.24
2022-12-31T10:40:25.939Z,89.41
2022-12-31T10:43:32.933Z,89.41
2022-12-31T10:46:54.979Z,89.83
2022-12-31T10:50:10.127Z,90.20
2022-12-31T10:53:47.260Z,89.90
2022-12-31T10:57:07.282Z,90.02
2022-12-31T11:00:09.110Z,89.66
2022-12-31T11:03:44.176Z,90.28
2022-12-31T11:07:03.225Z,89.89
2022-12-31T11:10:15.894Z,90.00
2022-12-31T11:13:35.787Z,89.06
2022-12-31T11:16:34.782Z,89.49
2022-12-31T11:19:17.826Z,89.10
2022-12-31T11:22:11.295Z,89.25
2022-12-31T11:25:07.226Z,89.52
2022-12-31T11:28:04.266Z,89.18
2022-12-31T11:30:50.325Z,89.89
2022-12-31T11:33:35.058Z,89.80
2022-12-31T11:36:18.543Z,89.59
2022-12-31T11:38:53.461Z,89.58
2022-12-31T11:41:36.352Z,89.70
2022-12-31T11:44:20.040Z,89.79
2022-12-31T11:47:10.198Z,89.66
2022-12-31T11:50:07.622Z,89.42
2022-12-31T11:52:55.667Z,89.96
2022-12-31T11:55:45.594Z,89.93
2022-12-31T11:58:18.023Z,90.07
2022-12-31T12:00:57.807Z,89.80
2022-12-31T12:03:27.073Z,89.68
2022-12-31T12:05:58.939Z,89.83
2022-12-31T12:08:29.260Z,89.62
2022-12-31T12:11:07.779Z,89.88
2022-12-31T12:13:36.453Z,89.79
2022-12-31T12:16:09.550Z,90.22
2022-12-31T12:18:46.194Z,89.42
2022-12-31T12:21:18.754Z,90.19
2022-12-31T12:23:57.781Z,90.20
2022-12-31T12:26:43.186Z,89.98
2022-12-31T12:29:14.279Z,89.82
2022-12-31T12:31:55.206Z,90.08
2022-12-31T12:34:27.139Z,89.80
2022-12-31T12:36:56.576Z,90.17
2022-12-31T12:39:27.741Z,90.44
2022-12-31T12:42:09.528Z,90.51
2022-12-31T12:44:38.541Z,90.39
2022-12-31T12:47:16.439Z,90.62
2022-12-31T12:49:48.980Z,90.62
2022-12-31T12:52:57.847Z,90.36
2022-12-31T12:55:42.395Z,90.38
2022-12-31T12:58:25.038Z,90.50
2022-12-31T13:01:10.613Z,90.94
2022-12-31T13:04:34.669Z,90.64
2022-12-31T13:07:21.902Z,90.43
2022-12-31T13:10:17.180Z,90.85
2022-12-31T13:15:54.110Z,91.23
2022-12-31T13:18:45.380Z,90.75
2022-12-31T13:21:46.330Z,91.00
2022-12-31T13:24:35.636Z,91.27
2022-12-31T13:27:18.628Z,90.80
2022-12-31T13:29:49.387Z,90.11
2022-12-31T13:32:24.906Z,90.68
2022-12-31T13:35:01.399Z,90.26
2022-12-31T13:37:40.666Z,90.51
2022-12-31T13:40:25.126Z,90.18
2022-12-31T13:43:01.320Z,90.71
2022-12-31T13:45:40.367Z,90.31
2022-12-31T13:48:19.773Z,91.05
2022-12-31T13:50:59.019Z,90.08
2022-12-31T13:53:39.643Z,90.60
2022-12-31T13:56:17.943Z,90.39
2022-12-31T13:58:53.276Z,90.13
2022-12-31T14:01:33.629Z,90.95
2022-12-31T14:04:14.054Z,90.97
2022-12-31T14:06:50.765Z,90.82
2022-12-31T14:09:25.871Z,90.64
2022-12-31T14:12:20.835Z,90.69
2022-12-31T14:15:04.651Z,91.00
2022-12-31T14:17:44.855Z,90.69
2022-12-31T14:20:29.170Z,90.60
2022-12-31T14:23:09.552Z,91.13
2022-12-31T14:25:45.436Z,91.05
2022-12-31T14:28:22.580Z,90.49
2022-12-31T14:31:00.268Z,90.75
2022-12-31T14:33:53.780Z,91.03
2022-12-31T14:36:38.308Z,91.18
2022-12-31T14:39:26.526Z,90.67
2022-12-31T14:42:20.048Z,90.94
2022-12-31T14:45:05.725Z,90.92
2022-12-31T14:47:52.348Z,90.62
2022-12-31T14:50:27.413Z,91.24
2022-12-31T14:53:09.208Z,90.75
2022-12-31T14:55:40.808Z,90.80
2022-12-31T14:58:28.194Z,91.19
2022-12-31T15:01:00.344Z,91.42
2022-12-31T15:03:44.750Z,91.29
2022-12-31T15:06:41.933Z,91.24
2022-12-31T15:09:32.393Z,91.94
2022-12-31T15:12:23.248Z,91.40
2022-12-31T15:15:33.525Z,91.21
2022-12-31T15:18:28.654Z,91.61
2022-12-31T15:21:42.641Z,91.22
2022-12-31T15:24:24.126Z,91.71
2022-12-31T15:26:57.488Z,91.82
2022-12-31T15:29:32.171Z,91.78
2022-12-31T15:32:06.114Z,91.79
2022-12-31T15:34:37.610Z,91.59
2022-12-31T15:37:28.015Z,91.71
2022-12-31T15:40:19.109Z,91.26
2022-12-31T15:42:55.174Z,91.40
2022-12-31T15:45:32.935Z,91.65
2022-12-31T15:48:10.115Z,92.04
2022-12-31T15:50:41.070Z,91.92
2022-12-31T15:53:18.526Z,91.68
2022-12-31T15:55:53.292Z,92.21
2022-12-31T15:58:27.581Z,91.74
2022-12-31T16:01:10.103Z,92.16
2022-12-31T16:03:50.390Z,92.26
2022-12-31T16:06:20.135Z,92.21
2022-12-31T16:08:51.267Z,91.97
2022-12-31T16:11:21.318Z,92.30
2022-12-31T16:13:54.854Z,92.36
2022-12-31T16:16:26.555Z,92.55
2022-12-31T16:18:59.033Z,92.80
2022-12-31T16:21:33.756Z,92.45
2022-12-31T16:24:08.452Z,92.26
2022-12-31T16:26:46.528Z,92.49
2022-12-31T16:29:18.340Z,92.29
2022-12-31T16:31:49.889Z,92.66
2022-12-31T16:34:23.435Z,92.06
2022-12-31T16:37:01.208Z,92.26
2022-12-31T16:39:33.888Z,92.34
2022-12-31T16:42:19.484Z,92.12
2022-12-31T16:44:49.648Z,92.22
2022-12-31T16:47:23.099Z,92.38
2022-12-31T16:50:04.130Z,92.05
2022-12-31T16:52:38.026Z,92.01
2022-12-31T16:55:10.820Z,91.96
2022-12-31T16:57:42.733Z,91.53
2022-12-31T17:00:20.848Z,91.89
2022-12-31T17:02:59.687Z,91.96
2022-12-31T17:05:30.568Z,91.96
2022-12-31T17:07:59.332Z,92.21
2022-12-31T17:10:36.179Z,92.05
2022-12-31T17:13:28.469Z,92.06
2022-12-31T17:15:59.355Z,91.72
2022-12-31T17:18:37.191Z,91.67
2022-12-31T17:21:11.761Z,91.71
2022-12-31T17:23:42.544Z,91.35
2022-12-31T17:26:14.804Z,91.46
2022-12-31T17:28:48.000Z,91.56
2022-12-31T17:31:34.141Z,91.63
2022-12-31T17:34:21.902Z,91.45
2022-12-31T17:37:01.368Z,91.59
2022-12-31T17:39:45.224Z,91.84
2022-12-31T17:42:19.013Z,91.64
2022-12-31T17:44:48.030Z,91.58
2022-12-31T17:47:16.709Z,91.80
2022-12-31T17:49:47.341Z,91.75
2022-12-31T17:52:18.045Z,91.67
2022-12-31T17:54:47.093Z,91.79
2022-12-31T17:57:28.938Z,91.92
2022-12-31T17:59:58.206Z,91.93
2022-12-31T18:02:26.949Z,91.83
2022-12-31T18:04:56.283Z,91.79
2022-12-31T18:07:26.801Z,91.76
2022-12-31T18:09:55.515Z,92.05
2022-12-31T18:12:24.886Z,92.18
2022-12-31T18:14:53.799Z,92.07
2022-12-31T18:17:22.524Z,93.28
2022-12-31T18:20:06.848Z,91.94
2022-12-31T18:22:37.644Z,92.28
2022-12-31T18:25:07.879Z,91.21
2022-12-31T18:27:36.736Z,91.30
2022-12-31T18:30:07.342Z,91.31
2022-12-31T18:32:38.667Z,91.10
2022-12-31T18:35:33.377Z,91.13
2022-12-31T18:38:07.215Z,91.27
2022-12-31T18:40:35.976Z,91.51
2022-12-31T18:43:05.273Z,91.61
2022-12-31T18:45:34.267Z,91.40
2022-12-31T18:48:03.132Z,91.55
2022-12-31T18:50:31.925Z,91.63
2022-12-31T18:53:00.550Z,91.85
2022-12-31T18:55:40.334Z,91.67
2022-12-31T18:58:09.628Z,91.61
2022-12-31T19:00:39.063Z,91.49
2022-12-31T19:03:07.924Z,91.80
2022-12-31T19:05:40.216Z,91.52
2022-12-31T19:08:09.779Z,91.62
2022-12-31T19:10:40.300Z,91.65
2022-12-31T19:13:13.567Z,91.80
2022-12-31T19:15:46.378Z,91.64
2022-12-31T19:18:15.129Z,91.82
2022-12-31T19:20:43.877Z,92.02
2022-12-31T19:23:18.205Z,91.90
2022-12-31T19:25:50.285Z,91.54
2022-12-31T19:28:24.000Z,91.67
2022-12-31T19:30:53.036Z,91.70
2022-12-31T19:33:22.129Z,91.61
2022-12-31T19:35:51.093Z,91.48
2022-12-31T19:38:23.949Z,91.50
2022-12-31T19:40:55.447Z,91.50
2022-12-31T19:43:25.357Z,91.22
2022-12-31T19:45:54.932Z,91.53
2022-12-31T19:48:32.658Z,91.84
2022-12-31T19:51:02.240Z,91.85
2022-12-31T19:53:30.967Z,91.67
2022-12-31T19:56:01.915Z,91.50
2022-12-31T19:58:30.718Z,91.70
2022-12-31T20:01:03.204Z,91.60
2022-12-31T20:03:33.455Z,91.56
2022-12-31T20:06:05.523Z,91.44
2022-12-31T20:08:35.197Z,91.46
2022-12-31T20:11:13.581Z,91.43
2022-12-31T20:13:43.593Z,91.65
2022-12-31T20:16:15.405Z,91.60
2022-12-31T20:18:46.460Z,91.72
2022-12-31T20:21:19.169Z,91.67
2022-12-31T20:23:49.842Z,91.80
2022-12-31T20:26:21.452Z,92.01
2022-12-31T20:28:50.958Z,91.82
2022-12-31T20:31:24.066Z,91.90
2022-12-31T20:33:54.298Z,92.06
2022-12-31T20:36:24.288Z,91.90
2022-12-31T20:38:53.086Z,92.01
2022-12-31T20:41:24.986Z,91.88
2022-12-31T20:43:53.683Z,91.84
2022-12-31T20:46:25.206Z,91.83
2022-12-31T20:48:57.340Z,91.72
2022-12-31T20:51:27.440Z,91.72
2022-12-31T20:54:00.085Z,91.96
2022-12-31T20:56:33.233Z,91.80
2022-12-31T20:59:02.468Z,92.07
2022-12-31T21:01:48.229Z,91.99
2022-12-31T21:04:21.021Z,91.88
2022-12-31T21:06:49.791Z,91.86
2022-12-31T21:09:18.480Z,91.63
2022-12-31T21:12:05.890Z,91.50
2022-12-31T21:14:36.552Z,91.54
2022-12-31T21:17:07.316Z,91.46
2022-12-31T21:19:36.043Z,91.57
2022-12-31T21:22:04.763Z,91.72
2022-12-31T21:24:33.474Z,91.63
2022-12-31T21:27:03.522Z,91.55
2022-12-31T21:29:34.841Z,91.56
2022-12-31T21:32:04.508Z,91.72
2022-12-31T21:34:33.360Z,91.71
2022-12-31T21:37:02.030Z,91.68
2022-12-31T21:39:30.663Z,91.94
2022-12-31T21:41:59.350Z,92.12
2022-12-31T21:44:29.523Z,92.21
2022-12-31T21:47:39.811Z,92.46
2022-12-31T21:50:10.619Z,92.50
2022-12-31T21:52:43.779Z,92.43
2022-12-31T21:55:31.338Z,92.19
2022-12-31T21:58:25.834Z,92.27
2022-12-31T22:01:10.123Z,92.49
2022-12-31T22:03:38.955Z,92.24
2022-12-31T22:06:12.265Z,92.61
2022-12-31T22:08:42.608Z,92.52
2022-12-31T22:11:13.390Z,92.56
2022-12-31T22:13:42.471Z,92.49
2022-12-31T22:16:14.167Z,92.59
2022-12-31T22:18:44.719Z,92.59
2022-12-31T22:21:19.522Z,92.52
2022-12-31T22:23:52.533Z,92.73
2022-12-31T22:26:24.642Z,92.56
2022-12-31T22:28:58.994Z,92.30
2022-12-31T22:31:31.234Z,92.30
2022-12-31T22:34:00.855Z,92.29
2022-12-31T22:36:29.483Z,92.48
2022-12-31T22:38:59.621Z,92.20
2022-12-31T22:41:29.779Z,92.33
2022-12-31T22:44:04.136Z,92.14
2022-12-31T22:46:36.251Z,92.26
2022-12-31T22:49:05.783Z,92.25
2022-12-31T22:51:56.902Z,92.23
2022-12-31T22:54:23.523Z,92.01
2022-12-31T22:56:52.188Z,92.07
2022-12-31T22:59:20.846Z,91.98
2022-12-31T23:01:51.411Z,92.10
2022-12-31T23:04:20.282Z,92.16
2022-12-31T23:06:48.947Z,91.90
2022-12-31T23:09:36.634Z,91.74
2022-12-31T23:12:09.639Z,91.84
2022-12-31T23:14:56.509Z,91.85
2022-12-31T23:17:46.445Z,91.61
2022-12-31T23:20:36.922Z,91.61
2022-12-31T23:23:08.829Z,91.61
2022-12-31T23:25:41.420Z,91.61
2022-12-31T23:28:13.212Z,91.67
2022-12-31T23:30:43.219Z,91.66
2022-12-31T23:33:17.205Z,91.48
2022-12-31T23:35:46.073Z,91.37
2022-12-31T23:38:16.771Z,91.29
2022-12-31T23:40:45.647Z,91.31
2022-12-31T23:43:22.019Z,91.38
2022-12-31T23:45:51.454Z,91.32
2022-12-31T23:48:21.523Z,91.38
2022-12-31T23:50:53.779Z,91.40
2022-12-31T23:53:23.908Z,91.22
2022-12-31T23:55:52.938Z,91.34
2022-12-31T23:58:22.173Z,91.38
